createdAt,value
2018-08-12T07:50:40.437Z,50.30
2018-08-12T07:53:17.871Z,58.60
2018-08-12T07:59:00.758Z,58.40
2018-08-12T08:06:14.694Z,58.50
2018-08-12T08:08:58.467Z,58.50
2018-08-12T08:11:32.104Z,58.40
2018-08-12T08:14:00.832Z,58.30
2018-08-12T08:17:33.576Z,58.20
2018-08-12T08:20:22.442Z,58.10
2018-08-12T09:33:06.558Z,56.20
2018-08-12T09:35:38.443Z,55.00
2018-08-12T09:38:20.603Z,54.80
2018-08-12T09:41:03.057Z,54.50
2018-08-12T09:43:31.915Z,54.40
2018-08-12T09:46:05.222Z,54.30
2018-08-12T09:52:24.646Z,53.80
2018-08-12T09:56:59.501Z,53.80
2018-08-12T09:59:28.206Z,53.70
2018-08-12T10:01:56.752Z,53.60
2018-08-12T10:04:25.406Z,53.50
2018-08-12T10:06:54.511Z,53.50
2018-08-12T10:09:23.382Z,53.40
2018-08-12T10:11:52.008Z,53.40
2018-08-12T10:14:20.534Z,53.10
2018-08-12T10:16:49.205Z,53.10
2018-08-12T10:19:17.877Z,53.00
2018-08-12T10:21:47.662Z,52.80
2018-08-12T10:24:16.145Z,52.80
2018-08-12T10:26:47.181Z,52.70
2018-08-12T10:29:16.710Z,52.60
2018-08-12T10:31:45.870Z,52.50
2018-08-12T10:34:34.300Z,52.50
2018-08-12T10:37:05.895Z,52.50
2018-08-12T10:39:45.056Z,52.40
2018-08-12T10:42:13.910Z,52.20
2018-08-12T10:44:42.594Z,52.20
2018-08-12T10:47:13.049Z,52.20
2018-08-12T10:49:42.077Z,52.10
2018-08-12T10:52:10.752Z,52.00
2018-08-12T10:54:39.678Z,51.90
2018-08-12T10:57:11.540Z,51.40
2018-08-12T10:59:40.280Z,51.20
2018-08-12T11:04:54.377Z,51.60
2018-08-12T11:07:22.825Z,51.30
2018-08-12T11:09:51.505Z,51.30
2018-08-12T11:12:20.275Z,51.10
2018-08-12T11:14:48.753Z,51.10
2018-08-12T11:17:18.563Z,51.20
2018-08-12T11:19:47.050Z,51.00
2018-08-12T11:22:26.866Z,50.80
2018-08-12T11:24:55.375Z,51.00
2018-08-12T11:27:23.992Z,50.60
2018-08-12T11:29:52.588Z,50.60
2018-08-12T11:32:21.184Z,50.70
2018-08-12T11:34:49.731Z,50.80
2018-08-12T11:37:19.223Z,50.60
2018-08-12T11:39:47.916Z,50.90
2018-08-12T11:42:16.942Z,50.30
2018-08-12T11:44:46.488Z,49.60
2018-08-12T11:47:32.139Z,49.90
2018-08-12T11:53:10.522Z,49.80
2018-08-12T11:55:42.207Z,49.70
2018-08-12T11:58:13.044Z,49.30
2018-08-12T12:00:42.680Z,49.20
2018-08-12T12:03:11.587Z,49.20
2018-08-12T12:05:43.248Z,49.30
2018-08-12T12:08:36.694Z,49.10
2018-08-12T12:11:05.909Z,48.90
2018-08-12T12:13:35.310Z,48.90
2018-08-12T12:16:08.745Z,48.60
2018-08-12T12:18:37.533Z,48.60
2018-08-12T12:21:06.180Z,48.40
2018-08-12T12:24:17.063Z,48.40
2018-08-12T12:26:46.454Z,48.50
2018-08-12T12:29:18.917Z,47.90
2018-08-12T12:31:48.660Z,47.60
2018-08-12T12:34:17.179Z,47.70
2018-08-12T12:36:45.970Z,47.40
2018-08-12T12:39:14.770Z,47.50
2018-08-12T12:41:43.425Z,47.00
2018-08-12T12:44:11.846Z,47.00
2018-08-12T12:46:40.290Z,46.90
2018-08-12T12:49:08.720Z,47.20
2018-08-12T12:51:37.249Z,47.60
2018-08-12T12:54:05.813Z,47.20
2018-08-12T12:56:34.417Z,47.40
2018-08-12T12:59:02.911Z,47.30
2018-08-12T13:01:31.557Z,47.20
2018-08-12T13:04:00.179Z,46.80
2018-08-12T13:06:28.737Z,46.70
2018-08-12T13:08:57.310Z,46.60
2018-08-12T13:11:29.698Z,46.40
2018-08-12T13:13:58.222Z,46.40
2018-08-12T13:16:31.069Z,46.20
2018-08-12T13:19:07.676Z,46.00
2018-08-12T13:21:36.330Z,45.70
2018-08-12T13:24:05.946Z,45.50
2018-08-12T13:26:35.487Z,45.80
2018-08-12T13:29:05.367Z,45.60
2018-08-12T13:31:34.494Z,45.70
2018-08-12T13:34:03.089Z,45.80
2018-08-12T13:36:32.037Z,45.30
2018-08-12T13:39:02.842Z,45.10
2018-08-12T13:41:32.202Z,44.70
2018-08-12T13:44:00.934Z,45.00
2018-08-12T13:46:29.699Z,44.90
2018-08-12T13:48:58.384Z,44.90
2018-08-12T13:51:30.266Z,44.90
2018-08-12T14:00:09.539Z,44.50
2018-08-12T14:02:43.349Z,44.70
2018-08-12T14:05:13.429Z,44.20
2018-08-12T14:07:42.866Z,44.40
2018-08-12T14:10:13.210Z,44.10
2018-08-12T14:21:49.574Z,43.60
2018-08-12T14:24:25.825Z,43.40
2018-08-12T14:26:54.454Z,42.70
2018-08-12T14:29:26.403Z,42.90
2018-08-12T14:31:56.726Z,43.20
2018-08-12T14:34:33.866Z,43.30
2018-08-12T14:37:09.476Z,42.90
2018-08-12T14:39:39.845Z,43.00
2018-08-12T14:42:08.321Z,43.00
2018-08-12T14:44:36.957Z,42.70
2018-08-12T14:47:05.487Z,42.50
2018-08-12T14:49:34.207Z,42.80
2018-08-12T14:52:02.967Z,42.90
2018-08-12T14:54:32.813Z,42.90
2018-08-12T14:57:01.307Z,42.30
2018-08-12T14:59:29.902Z,42.20
2018-08-12T15:01:58.641Z,42.10
2018-08-12T15:04:27.141Z,42.10
2018-08-12T15:06:55.658Z,42.50
2018-08-12T15:09:33.570Z,42.40
2018-08-12T15:12:04.246Z,42.10
2018-08-12T15:14:33.096Z,42.20
2018-08-12T15:17:01.693Z,41.70
2018-08-12T15:19:30.508Z,41.80
2018-08-12T15:21:59.145Z,42.30
2018-08-12T15:24:27.606Z,42.50
2018-08-12T15:26:56.113Z,42.10
2018-08-12T15:29:27.119Z,42.10
2018-08-12T15:31:55.645Z,42.20
2018-08-12T15:34:24.444Z,42.10
2018-08-12T15:36:59.728Z,42.00
2018-08-12T15:39:39.260Z,41.90
2018-08-12T15:42:12.297Z,41.60
2018-08-12T15:44:42.432Z,41.80
2018-08-12T15:47:11.494Z,41.90
2018-08-12T15:49:40.454Z,41.90
2018-08-12T15:52:12.134Z,42.10
2018-08-12T15:54:42.744Z,42.10
2018-08-12T15:57:11.417Z,42.10
2018-08-12T16:46:17.758Z,42.10
2018-08-12T16:52:04.881Z,43.20
2018-08-12T16:54:37.983Z,43.10
2018-08-12T16:57:09.717Z,43.30
2018-08-12T16:59:48.017Z,43.20
2018-08-12T17:02:59.259Z,43.20
2018-08-12T17:05:54.642Z,43.90
2018-08-12T17:08:28.066Z,43.60
2018-08-12T17:56:32.774Z,43.70
2018-08-12T17:59:02.740Z,45.10
2018-08-12T18:01:57.048Z,45.10
2018-08-12T18:04:25.670Z,45.20
2018-08-12T18:06:55.134Z,45.30
2018-08-12T18:09:32.586Z,45.30
2018-08-12T18:12:06.090Z,45.50
2018-08-12T18:14:34.547Z,45.60
